Terminal Aerodrome Forecast
Issued by NWS

Home | Current Version | Previous Version | Text Only | Print | Product List | Glossary On
Versions: 1 2 3 4 5 6 7 8 9 10 11 12 13 14 15 16
000
FTUS46 KEKA 260230 AAA
TAFCEC
TAF AMD
KCEC 260230Z 2603/2624 19005KT P6SM OVC010
     FM260500 00000KT 3SM BR OVC007
     FM261000 00000KT 1SM BR OVC003
     FM261700 18010KT 6SM BR OVC007
     FM262100 23007KT P6SM OVC015=

USA.gov is the U.S. government's official web portal to all federal, state and local government web resources and services.